Tiempo atmosférico en la estación meteorológica de Jaca, Huesca (830 m.)



Fecha
DESCASC
Temp. máxima en grados centígrados (hora)
DESCASC
Temp. mínima en grados centígrados (hora)
DESCASC
Temp. media en grados centígrados
DESCASC
Racha de viento máxima en m/sg (hora)
DESCASC
Velocidad máxima media en intervalos de 10 minutos(hora)
DESCASC
Precipitaciones diarias en mm
DESCASC
Precipitaciones de 00:00 a 06:00 en mm
DESCASC
Precipitaciones de 06:00 a 12:00 en mm
DESCASC
Precipitaciones de 12:00 a 18:00 en mm
DESCASC
Precipitaciones de 18:00 a 24:00 en mm
DESCASC
18-08-2019 35.1 (15:20) 17.8 (05:50) 26.4 7.5 (17:30) 3.61 (15:30) 0 0 0 0 0
17-08-2019 35 (16:00) 16.3 (08:30) 25.6 8.33 (15:30) 3.61 (06:50) 0 0 0 0 0
16-08-2019 32.1 (17:10) 8.9 (07:00) 20.5 7.5 (17:40) 4.17 (23:00) 0 0 0 0 0
15-08-2019 28.6 (15:40) 12.8 (00:00) 20.7 9.44 (18:50) 4.17 (15:00) 0 0 0 0 0
14-08-2019 29.5 (16:10) 7 (00:00) 18.3 11.67 (17:10) 5 (17:20) 0 0 0 0 0
13-08-2019 25.6 (16:40) 8.7 (00:00) 17.2 8.89 (18:40) 3.33 (00:20) 0 0 0 0 0
12-08-2019 23.8 (13:20) 11.1 (00:00) 17.4 17.78 (20:20) 10.56 (16:40) 0 0 0 0 0
11-08-2019 27.6 (17:20) 15.5 (00:00) 21.6 8.89 (09:20) 3.61 (00:40) 0 0 0 0 0
10-08-2019 29.4 (14:50) 14.4 (00:00) 21.9 7.5 (21:40) 4.17 (22:10) 0 0 0 0 0
09-08-2019 36.1 (16:10) 17.9 (00:00) 27 8.89 (18:10) 3.61 (20:50) 0 0 0 0 0
08-08-2019 33.4 (17:30) 17.7 (00:00) 25.6 6.67 (17:40) 2.5 (18:10) 0 0 0 0 0
07-08-2019 31.8 (15:20) 17.8 (00:00) 24.8 10 (15:10) 3.89 (14:40) 0 0 0 0 0
06-08-2019 34.1 (17:10) 15.4 (00:00) 24.7 7.22 (14:10) 3.33 (22:10) 0 0 0 0 0
05-08-2019 35.1 (15:30) 14.7 (00:00) 24.9 7.78 (22:10) 3.89 (22:50) 0 0 0 0 0
04-08-2019 35.3 (15:10) 16 (00:00) 25.6 6.94 (00:10) 3.89 (21:30) 0 0 0 0 0
03-08-2019 34.7 (17:20) 12.7 (00:00) 23.7 8.06 (21:40) 5 (22:00) 0 0 0 0 0
02-08-2019 31.3 (15:40) 12.8 (00:00) 22 9.17 (17:30) 4.72 (21:00) 0 0 0 0 0
01-08-2019 31.1 (17:00) 15.6 (00:00) 23.4 11.67 (20:50) 6.94 (20:40) 0 0 0 0 0
31-07-2019 29.7 (16:20) 7.6 (00:00) 18.7 8.06 (23:59) 3.89 (23:59) 0 0 0 0 0
30-07-2019 25.8 (15:00) 12.1 (00:00) 18.9 9.72 (20:40) 4.72 (20:30) 0 0 0 0 0
29-07-2019 30.4 (17:30) 9.6 (00:00) 20 7.5 (15:10) 3.89 (01:50) 0 0 0 0 0
28-07-2019 25 (16:50) 8.9 (00:00) 16.9 10.83 (01:10) 5 (02:40) 0 0 0 0 0
27-07-2019 22.4 (17:40) 11.5 (00:00) 16.9 11.67 (18:50) 6.11 (18:50) 0 0 0 0 0
26-07-2019 26.1 (15:50) 15.3 (00:00) 20.7 9.72 (19:00) 5.28 (23:20) 0 0 0 0 0
25-07-2019 36.6 (16:10) 20.8 (00:00) 28.7 8.61 (15:10) 4.17 (16:30) 0 0 0 0 0
24-07-2019 37.3 (16:00) 18.9 (00:00) 28.1 7.22 (17:00) 3.33 (07:30) 0 0 0 0 0
23-07-2019 37 (16:10) 18.7 (00:00) 27.9 8.89 (15:20) 3.33 (17:10) 0 0 0 0 0
22-07-2019 36.8 (15:50) 18.4 (00:00) 27.6 8.06 (18:10) 3.33 (18:40) 0 0 0 0 0
21-07-2019 34.3 (17:40) 16.7 (00:00) 25.5 6.11 (11:10) 2.5 (23:10) 0 0 0 0 0

Gráficas

Temp. máximas Temp. mínimas Temp. medias Precipitaciones Rachas de viento máximas Velocidades máximas media en intervalos de 10 minutos

Datos horarios

Fecha y hora oficial Temperatura (ºC) Velocidad del viento (km/h) Dirección del viento Racha (km/h) Dirección de racha Precipitación (mm) Presión (hPa) Tendencia (hPa) Humedad (%)
2019-08-19 23:00:00 16.3 3 Oeste 23 Nordeste 0 -- -- 85
2019-08-19 22:00:00 17.5 2 Este 18 Sur 0 -- -- 72
2019-08-19 21:00:00 19.3 4 Noroeste 19 Oeste 0 -- -- 55
2019-08-19 20:00:00 20.4 5 Norte 19 Sudoeste 0 -- -- 51
2019-08-19 19:00:00 21.2 5 Norte 23 Sudoeste 0 -- -- 48
2019-08-19 18:00:00 22.7 4 Oeste 18 Noroeste 0 -- -- 46
2019-08-19 17:00:00 23.8 3 Noroeste 18 Noroeste 0 -- -- 45
2019-08-19 16:00:00 24.6 4 Oeste 19 Noroeste 0 -- -- 43
2019-08-19 15:00:00 26.3 3 Noroeste 16 Sudoeste 0 -- -- 42
2019-08-19 14:00:00 25.2 7 Noroeste 19 Noroeste 0 -- -- 43
2019-08-19 13:00:00 22.7 6 Noroeste 16 Noroeste 0 -- -- 48
2019-08-19 12:00:00 20.4 4 Oeste 14 Oeste 0 -- -- 53
2019-08-19 11:00:00 19.6 3 Oeste 12 Noroeste 0 -- -- 55
2019-08-19 10:00:00 17.3 5 Noroeste 10 Noroeste 0 -- -- 61
2019-08-19 09:00:00 15.2 0 Calma -- -- 0 -- -- 67
2019-08-19 08:00:00 14 0 Calma 13 Noroeste 0 -- -- 70
2019-08-19 07:00:00 14 5 Oeste 10 Oeste 0 -- -- 70
2019-08-19 06:00:00 14.8 2 Oeste 13 Noroeste 0 -- -- 68
2019-08-19 05:00:00 15.5 6 Noroeste 12 Noroeste 0 -- -- 68
2019-08-19 04:00:00 15.7 6 Oeste 15 Noroeste 0 -- -- 68
2019-08-19 03:00:00 16 9 Noroeste 16 Noroeste 0 -- -- 68
2019-08-19 02:00:00 17 6 Oeste 14 Oeste 0 -- -- 68
2019-08-19 01:00:00 17.5 7 Noroeste 17 Noroeste 0 -- -- 67
2019-08-19 00:00:00 18.2 8 Noroeste 19 Oeste 0 -- -- 64
2019-08-18 23:00:00 19.5 7 Oeste 26 Noroeste 0 -- -- 61
2019-08-18 22:00:00 21 10 Noroeste 22 Oeste 0 -- -- 55
2019-08-18 21:00:00 23.6 6 Noroeste 19 Noroeste 0 -- -- 49
2019-08-18 20:00:00 27.8 6 Oeste 25 Noroeste 0 -- -- 34
2019-08-18 19:00:00 31.7 10 Noroeste 24 Noroeste 0 -- -- 25
2019-08-18 18:00:00 33.2 11 Norte 27 Noroeste 0 -- -- 22
2019-08-18 17:00:00 32.9 4 Sudoeste 22 Sudoeste 0 -- -- 25
2019-08-18 16:00:00 33.2 4 Oeste 27 Sudoeste 0 -- -- 23
2019-08-18 15:00:00 34.2 5 Noroeste 19 Noroeste 0 -- -- 22
2019-08-18 14:00:00 33.5 6 Sudoeste 21 Sudeste 0 -- -- 25
2019-08-18 13:00:00 31.7 2 Sudoeste 13 Sudeste 0 -- -- 30
2019-08-18 12:00:00 30.1 2 Este 19 Sur 0 -- -- 32
2019-08-18 11:00:00 28.4 5 Sudeste 18 Sudeste 0 -- -- 36
2019-08-18 10:00:00 25.9 7 Sudeste 21 Sudeste 0 -- -- 47
2019-08-18 09:00:00 19.8 4 Nordeste 12 Nordeste 0 -- -- 58
2019-08-18 08:00:00 18 5 Nordeste 12 Nordeste 0 -- -- 59
2019-08-18 07:00:00 18.4 6 Nordeste 13 Norte 0 -- -- 58
2019-08-18 06:00:00 17.8 0 Calma 12 Nordeste 0 -- -- 55
2019-08-18 05:00:00 19.4 5 Nordeste 10 Nordeste 0 -- -- 55
2019-08-18 04:00:00 19.4 6 Nordeste 11 Nordeste 0 -- -- 51
2019-08-18 03:00:00 19.6 4 Nordeste 11 Nordeste 0 -- -- 48
2019-08-18 02:00:00 20.3 3 Nordeste 11 Nordeste 0 -- -- 43
2019-08-18 01:00:00 21.5 4 Nordeste 15 Este 0 -- -- 38
2019-08-18 00:00:00 22 7 Nordeste 23 Nordeste 0 -- -- 35
2019-08-17 23:00:00 23.2 6 Nordeste 22 Nordeste 0 -- -- 33
2019-08-17 22:00:00 24.3 6 Nordeste 18 Nordeste 0 -- -- 31
2019-08-17 21:00:00 27.3 0 Calma 5 Nordeste 0 -- -- 27
2019-08-17 20:00:00 31 0 Calma 17 Sudoeste 0 -- -- 24
2019-08-17 19:00:00 32.1 5 Sur 15 Noroeste 0 -- -- 23
2019-08-17 18:00:00 33.9 12 Norte 28 Noroeste 0 -- -- 23
2019-08-17 17:00:00 34.2 6 Noroeste 25 Sur 0 -- -- 23
2019-08-17 16:00:00 34.3 4 Oeste 30 Sudoeste 0 -- -- 22
2019-08-17 15:00:00 34 3 Oeste 18 Sudoeste 0 -- -- 23
2019-08-17 14:00:00 33.2 7 Oeste 22 Noroeste 0 -- -- 25
2019-08-17 13:00:00 32.6 5 Sudoeste 19 Oeste 0 -- -- 25
2019-08-17 12:00:00 30.5 7 Sudeste 21 Sudeste 0 -- -- 27
2019-08-17 11:00:00 27.8 4 Sudeste 19 Sudeste 0 -- -- 33
2019-08-17 10:00:00 22.3 0 Calma 7 Nordeste 0 -- -- 44
2019-08-17 09:00:00 17.5 6 Nordeste 21 Nordeste 0 -- -- 51
2019-08-17 08:00:00 17 11 Nordeste 24 Nordeste 0 -- -- 51
2019-08-17 07:00:00 16.6 9 Nordeste 23 Norte 0 -- -- 51
2019-08-17 06:00:00 16.6 7 Nordeste 20 Nordeste 0 -- -- 51
2019-08-17 05:00:00 17.4 4 Nordeste 26 Nordeste 0 -- -- 48
2019-08-17 04:00:00 17.7 5 Nordeste 22 Nordeste 0 -- -- 47
2019-08-17 03:00:00 18 3 Nordeste 22 Nordeste 0 -- -- 46
2019-08-17 02:00:00 19.1 8 Nordeste 19 Nordeste 0 -- -- 42
2019-08-17 01:00:00 19.6 7 Nordeste 22 Nordeste 0 -- -- 40
2019-08-17 00:00:00 20.2 5 Nordeste 26 Norte 0 -- -- 39
2019-08-16 23:00:00 21 15 Nordeste 26 Nordeste 0 -- -- 37
2019-08-16 22:00:00 22.7 15 Nordeste 26 Nordeste 0 -- -- 32
2019-08-16 21:00:00 25.4 4 Nordeste 10 Oeste 0 -- -- 27
2019-08-16 20:00:00 28.8 3 Noroeste 18 Sudoeste 0 -- -- 23
2019-08-16 19:00:00 30.7 5 Noroeste 20 Noroeste 0 -- -- 22
2019-08-16 18:00:00 30.9 11 Noroeste 27 Norte 0 -- -- 21
2019-08-16 17:00:00 31.6 6 Noroeste 26 Noroeste 0 -- -- 21
2019-08-16 16:00:00 30.8 8 Noroeste 26 Noroeste 0 -- -- 20
2019-08-16 15:00:00 30.5 8 Noroeste 23 Noroeste 0 -- -- 18
2019-08-16 14:00:00 29.3 8 Noroeste 23 Noroeste 0 -- -- 20
2019-08-16 13:00:00 28.4 2 Oeste 15 Noroeste 0 -- -- 26
2019-08-16 12:00:00 25.3 5 Noroeste 11 Noroeste 0 -- -- 29
2019-08-16 11:00:00 22 2 Noroeste 8 Noroeste 0 -- -- 38
2019-08-16 10:00:00 19 2 Sur 9 Sudeste 0 -- -- 44
2019-08-16 09:00:00 13 2 Este 15 Nordeste 0 -- -- 62
2019-08-16 08:00:00 9.5 6 Nordeste 16 Nordeste 0 -- -- 70
2019-08-16 07:00:00 8.9 0 Calma 21 Norte 0 -- -- 70
2019-08-16 06:00:00 9.9 9 Nordeste 24 Nordeste 0 -- -- 67
2019-08-16 05:00:00 10.3 8 Nordeste 17 Norte 0 -- -- 65
2019-08-16 04:00:00 11.4 10 Nordeste 20 Nordeste 0 -- -- 62
2019-08-16 03:00:00 11.3 5 Nordeste 13 Nordeste 0 -- -- 62
2019-08-16 02:00:00 11.7 4 Nordeste 14 Nordeste 0 -- -- 61
2019-08-16 01:00:00 12.5 3 Nordeste 12 Nordeste 0 -- -- 58
2019-08-16 00:00:00 13.7 0 Calma 9 Nordeste 0 -- -- 53
2019-08-15 23:00:00 15.7 5 Noroeste 16 Noroeste 0 -- -- 44
2019-08-15 22:00:00 17.1 7 Noroeste 18 Norte 0 -- -- 42
2019-08-15 21:00:00 19.7 9 Noroeste 25 Noroeste 0 -- -- 35
2019-08-15 20:00:00 22.9 12 Noroeste 29 Oeste 0 -- -- 29
2019-08-15 19:00:00 25 13 Noroeste 34 Noroeste 0 -- -- 27
2019-08-15 18:00:00 26.6 12 Noroeste 33 Noroeste 0 -- -- 27
2019-08-15 17:00:00 27.7 9 Oeste 32 Noroeste 0 -- -- 25
2019-08-15 16:00:00 28 12 Noroeste 30 Noroeste 0 -- -- 26
2019-08-15 15:00:00 26.9 15 Noroeste 34 Noroeste 0 -- -- 28
2019-08-15 14:00:00 27.1 7 Oeste 31 Noroeste 0 -- -- 30
2019-08-15 13:00:00 25.4 8 Noroeste 25 Noroeste 0 -- -- 37
2019-08-15 12:00:00 23.9 6 Oeste 21 Noroeste 0 -- -- 42
2019-08-15 11:00:00 21.7 5 Oeste 14 Noroeste 0 -- -- 49
2019-08-15 10:00:00 18.1 2 Noroeste 7 Oeste 0 -- -- 65
2019-08-15 09:00:00 15.3 0 Calma 9 Este 0 -- -- 73
2019-08-15 08:00:00 13.1 6 Nordeste 12 Nordeste 0 -- -- 79
2019-08-15 07:00:00 13 0 Calma 6 Nordeste 0 -- -- 79
2019-08-15 06:00:00 12.9 0 Calma 13 Norte 0 -- -- 78
2019-08-15 05:00:00 13.3 0 Calma 4 Nordeste 0 -- -- 76
2019-08-15 04:00:00 13.9 0 Calma 3 Norte 0 -- -- 72
2019-08-15 03:00:00 14.6 0 Calma 7 Nordeste 0 -- -- 68
2019-08-15 02:00:00 15.9 0 Calma 12 Oeste 0 -- -- 63
2019-08-15 01:00:00 17.1 2 Sudoeste 14 Sudoeste 0 -- -- 58
2019-08-15 00:00:00 17.5 2 Noroeste 15 Noroeste 0 -- -- 54
2019-08-14 23:00:00 18.4 9 Noroeste 20 Noroeste 0 -- -- 51
2019-08-14 22:00:00 19.6 5 Noroeste 15 Nordeste 0 -- -- 46
2019-08-14 21:00:00 21.9 9 Norte 26 Norte 0 -- -- 38
2019-08-14 20:00:00 24.9 11 Norte 31 Noroeste 0 -- -- 31
2019-08-14 19:00:00 27.3 14 Noroeste 37 Noroeste 0 -- -- 27
2019-08-14 18:00:00 28.5 15 Noroeste 42 Noroeste 0 -- -- 25
2019-08-14 17:00:00 29 15 Noroeste 42 Noroeste 0 -- -- 24
2019-08-14 16:00:00 28.6 12 Noroeste 40 Noroeste 0 -- -- 23
2019-08-14 15:00:00 28.3 8 Oeste 35 Oeste 0 -- -- 23
2019-08-14 14:00:00 27.6 6 Oeste 27 Noroeste 0 -- -- 23
2019-08-14 13:00:00 24.8 9 Noroeste 24 Noroeste 0 -- -- 25
2019-08-14 12:00:00 21.9 5 Noroeste 17 Noroeste 0 -- -- 31
2019-08-14 11:00:00 18.7 2 Oeste 9 Sudoeste 0 -- -- 38
2019-08-14 10:00:00 14.1 0 Calma 9 Nordeste 0 -- -- 52
2019-08-14 09:00:00 9.7 2 Nordeste 9 Nordeste 0 -- -- 65
2019-08-14 08:00:00 7.2 6 Nordeste 14 Nordeste 0 -- -- 72
2019-08-14 07:00:00 7.4 0 Calma 13 Nordeste 0 -- -- 70
2019-08-14 06:00:00 8.8 9 Nordeste 21 Nordeste 0 -- -- 67
2019-08-14 05:00:00 8.3 0 Calma 12 Nordeste 0 -- -- 68
2019-08-14 04:00:00 8.8 4 Nordeste 17 Nordeste 0 -- -- 67
2019-08-14 03:00:00 9.1 6 Nordeste 14 Nordeste 0 -- -- 67
2019-08-14 02:00:00 9.7 3 Nordeste 14 Norte 0 -- -- 64
2019-08-14 01:00:00 10.6 6 Nordeste 13 Norte 0 -- -- 61
2019-08-14 00:00:00 12.3 0 Calma 10 Noroeste 0 -- -- 55
2019-08-13 23:00:00 13.3 2 Norte 8 Noroeste 0 -- -- 49
2019-08-13 22:00:00 15.1 4 Oeste 11 Sudoeste 0 -- -- 42
2019-08-13 21:00:00 17.2 5 Oeste 22 Oeste 0 -- -- 37
2019-08-13 20:00:00 20.1 4 Oeste 27 Noroeste 0 -- -- 32
2019-08-13 19:00:00 22.6 8 Oeste 32 Noroeste 0 -- -- 29
2019-08-13 18:00:00 24.6 8 Oeste 27 Noroeste 0 -- -- 27
2019-08-13 17:00:00 24.8 6 Noroeste 28 Noroeste 0 -- -- 26
2019-08-13 16:00:00 25.3 6 Oeste 23 Sudoeste 0 -- -- 28
2019-08-13 15:00:00 23.9 5 Oeste 20 Noroeste 0 -- -- 29
2019-08-13 14:00:00 22.7 6 Oeste 23 Noroeste 0 -- -- 31
2019-08-13 13:00:00 20.7 4 Oeste 19 Noroeste 0 -- -- 37
2019-08-13 12:00:00 18 3 Oeste 14 Noroeste 0 -- -- 43
2019-08-13 11:00:00 15.1 3 Oeste 15 Noroeste 0 -- -- 52
2019-08-13 10:00:00 13 2 Sudoeste 8 Oeste 0 -- -- 61
2019-08-13 09:00:00 10.2 0 Calma 5 Sudoeste 0 -- -- 78
2019-08-13 08:00:00 9 2 Nordeste 5 Oeste 0 -- -- 78
2019-08-13 07:00:00 8.9 0 Calma 7 Norte 0 -- -- 73
2019-08-13 06:00:00 9.8 0 Calma 7 Sudoeste 0 -- -- 70
2019-08-13 05:00:00 10.3 0 Calma 13 Noroeste 0 -- -- 68
2019-08-13 04:00:00 10.4 0 Calma 10 Sudeste 0 -- -- 67
2019-08-13 03:00:00 10.8 0 Calma 10 Sudoeste 0 -- -- 65
2019-08-13 02:00:00 11.1 3 Oeste 22 Noroeste 0 -- -- 64
2019-08-13 01:00:00 11.1 8 Noroeste 22 Noroeste 0 -- -- 64
2019-08-13 00:00:00 11.1 7 Noroeste 36 Noroeste 0 -- -- 61
2019-08-12 23:00:00 12.7 12 Noroeste 42 Noroeste 0 -- -- 51
2019-08-12 22:00:00 13.8 6 Noroeste 36 Norte 0 -- -- 46
2019-08-12 21:00:00 15.4 14 Norte 64 Norte 0 -- -- 40
2019-08-12 20:00:00 16.5 30 Norte 61 Nordeste 0 -- -- 40
2019-08-12 19:00:00 17.8 33 Norte 55 Nordeste 0 -- -- 38
2019-08-12 18:00:00 19.8 33 Nordeste 54 Norte 0 -- -- 35
2019-08-12 17:00:00 20.5 33 Norte 61 Nordeste 0 -- -- 34
2019-08-12 16:00:00 20.5 35 Norte 49 Nordeste 0 -- -- 34
2019-08-12 15:00:00 21.4 24 Norte 37 Nordeste 0 -- -- 33
2019-08-12 14:00:00 22.8 10 Oeste 34 Noroeste 0 -- -- 33
2019-08-12 13:00:00 22.7 10 Oeste 28 Sudoeste 0 -- -- 34
2019-08-12 12:00:00 22 5 Oeste 21 Oeste 0 -- -- 38
2019-08-12 11:00:00 18.6 8 Noroeste 23 Sudoeste 0 -- -- 47
2019-08-12 10:00:00 15.8 8 Noroeste 19 Noroeste 0 -- -- 59
2019-08-12 09:00:00 14 5 Oeste 12 Noroeste 0 -- -- 70
2019-08-12 08:00:00 11.7 5 Noroeste 13 Noroeste 0 -- -- 79
2019-08-12 07:00:00 11.8 3 Oeste 9 Noroeste 0 -- -- 79
2019-08-12 06:00:00 11.9 5 Noroeste 14 Noroeste 0 -- -- 79
2019-08-12 05:00:00 12.2 6 Noroeste 16 Noroeste 0 -- -- 77
2019-08-12 04:00:00 12.8 6 Noroeste 14 Noroeste 0 -- -- 74
2019-08-12 03:00:00 13.6 3 Oeste 14 Oeste 0 -- -- 70
2019-08-12 02:00:00 14.7 5 Oeste 13 Noroeste 0 -- -- 64
2019-08-12 01:00:00 15.2 7 Noroeste 14 Noroeste 0 -- -- 61
2019-08-12 00:00:00 15.6 5 Oeste 21 Oeste 0 -- -- 58
2019-08-11 23:00:00 16.4 9 Noroeste 19 Noroeste 0 -- -- 55
2019-08-11 22:00:00 17.6 10 Noroeste 22 Noroeste 0 -- -- 51
2019-08-11 21:00:00 19.4 7 Norte 26 Oeste 0 -- -- 42
2019-08-11 20:00:00 23 6 Oeste 26 Oeste 0 -- -- 37
2019-08-11 19:00:00 25.5 5 Noroeste 18 Oeste 0 -- -- 28
2019-08-11 18:00:00 26.4 5 Noroeste 17 Sudoeste 0 -- -- 27
2019-08-11 17:00:00 27 6 Noroeste 22 Noroeste 0 -- -- 29
2019-08-11 16:00:00 26.5 6 Oeste 18 Noroeste 0 -- -- 34
2019-08-11 15:00:00 25.6 6 Noroeste 19 Noroeste 0 -- -- 40
2019-08-11 14:00:00 24.1 4 Oeste 23 Noroeste 0 -- -- 49
2019-08-11 13:00:00 21.5 8 Noroeste 18 Noroeste 0 -- -- 61
2019-08-11 12:00:00 19.7 5 Norte 12 Norte 0 -- -- 76
2019-08-11 11:00:00 16.8 3 Sudeste 17 Sudoeste 0 -- -- 82
2019-08-11 10:00:00 15.6 6 Sudoeste 32 Noroeste 0 -- -- 85
2019-08-11 09:00:00 17.2 5 Oeste 23 Oeste 0 -- -- 78
2019-08-11 08:00:00 17.7 0 Calma 16 Sudoeste 0 -- -- 67
2019-08-11 07:00:00 17.5 0 Calma 7 Sudoeste 0 -- -- 65
2019-08-11 06:00:00 17.4 2 Sudoeste 6 Noroeste 0 -- -- 62
2019-08-11 05:00:00 16.8 3 Oeste 8 Sudeste 0 -- -- 62
2019-08-11 04:00:00 16.9 0 Calma 14 Norte 0 -- -- 61
2019-08-11 03:00:00 16.5 5 Nordeste 16 Nordeste 0 -- -- 61
2019-08-11 02:00:00 16.4 8 Nordeste 15 Nordeste 0 -- -- 61
2019-08-11 01:00:00 18.2 2 Norte 21 Nordeste 0 -- -- 55
2019-08-11 00:00:00 18.4 5 Nordeste 20 Nordeste 0 -- -- 55
2019-08-10 23:00:00 20 11 Nordeste 26 Nordeste 0 -- -- 47
2019-08-10 22:00:00 20.8 12 Nordeste 27 Nordeste 0 -- -- 40
2019-08-10 21:00:00 22.8 11 Nordeste 21 Norte 0 -- -- 29
2019-08-10 20:00:00 26.8 4 Norte 14 Noroeste 0 -- -- 23
2019-08-10 19:00:00 27.8 2 Sudoeste 14 Sudoeste 0 -- -- 24
2019-08-10 18:00:00 27.4 6 Noroeste 21 Noroeste 0 -- -- 25
2019-08-10 17:00:00 28.1 3 Noroeste 25 Norte 0 -- -- 25
2019-08-10 16:00:00 27.4 8 Norte 27 Noroeste 0 -- -- 25
2019-08-10 15:00:00 27.5 10 Noroeste 23 Noroeste 0 -- -- 25
2019-08-10 14:00:00 27.4 6 Noroeste 17 Noroeste 0 -- -- 25
2019-08-10 13:00:00 25.5 5 Noroeste 18 Oeste 0 -- -- 33
2019-08-10 12:00:00 23.3 6 Noroeste 17 Noroeste 0 -- -- 47
2019-08-10 11:00:00 21 3 Oeste 10 Sudoeste 0 -- -- 63
2019-08-10 10:00:00 17.9 3 Noroeste 8 Oeste 0 -- -- 76
2019-08-10 09:00:00 16.5 0 Calma 15 Nordeste 0 -- -- 82
2019-08-10 08:00:00 14.6 6 Nordeste 13 Nordeste 0 -- -- 86
2019-08-10 07:00:00 14.6 5 Nordeste 15 Nordeste 0 -- -- 87
2019-08-10 06:00:00 14.8 8 Nordeste 18 Nordeste 0 -- -- 87
2019-08-10 05:00:00 15.2 5 Nordeste 14 Nordeste 0 -- -- 87
2019-08-10 04:00:00 16.3 5 Norte 17 Norte 0 -- -- 87
2019-08-10 03:00:00 17.1 12 Nordeste 24 Nordeste 0 -- -- 86
2019-08-10 02:00:00 17.5 9 Nordeste 21 Nordeste 0 -- -- 82
2019-08-10 01:00:00 17.7 7 Nordeste 18 Nordeste 0 -- -- 82
2019-08-10 00:00:00 18.2 2 Nordeste 20 Nordeste 0 -- -- 81
2019-08-09 23:00:00 18.8 9 Norte 20 Noroeste 0 -- -- 86
2019-08-09 22:00:00 20.5 2 Norte 17 Noroeste 0 -- -- 81
2019-08-09 21:00:00 22.1 12 Noroeste 31 Noroeste 0 -- -- 65
2019-08-09 20:00:00 29.4 5 Noroeste 18 Noroeste 0 -- -- 30
2019-08-09 19:00:00 31.7 11 Noroeste 32 Norte 0 -- -- 27
2019-08-09 18:00:00 34 0 Calma 17 Sudoeste 0 -- -- 27
2019-08-09 17:00:00 33.7 5 Oeste 27 Sudoeste 0 -- -- 26
2019-08-09 16:00:00 35.5 7 Oeste 25 Norte 0 -- -- 25
2019-08-09 15:00:00 34.1 6 Oeste 25 Sudoeste 0 -- -- 27
2019-08-09 14:00:00 34.1 6 Oeste 22 Noroeste 0 -- -- 26
2019-08-09 13:00:00 33.3 4 Sudoeste 23 Sudeste 0 -- -- 27
2019-08-09 12:00:00 31 6 Sur 17 Sur 0 -- -- 31
2019-08-09 11:00:00 30.1 6 Sudeste 23 Sur 0 -- -- 33
2019-08-09 10:00:00 27.9 8 Sudeste 18 Sudeste 0 -- -- 40
2019-08-09 09:00:00 22.6 3 Este 15 Sudeste 0 -- -- 53
2019-08-09 08:00:00 19.7 3 Este 10 Sudeste 0 -- -- 57
2019-08-09 07:00:00 19.8 3 Este 13 Este 0 -- -- 54
2019-08-09 06:00:00 19.8 3 Este 10 Sudeste 0 -- -- 52
2019-08-09 05:00:00 22.6 6 Este 19 Sudeste 0 -- -- 44
2019-08-09 04:00:00 23.2 8 Este 18 Este 0 -- -- 44
2019-08-09 03:00:00 23.6 7 Este 21 Sudeste 0 -- -- 42
2019-08-09 02:00:00 23.6 3 Este 15 Sudeste 0 -- -- 40
2019-08-09 01:00:00 23.1 2 Este 14 Sudeste 0 -- -- 40
2019-08-09 00:00:00 23.6 3 Nordeste 18 Nordeste 0 -- -- 40
2019-08-08 23:00:00 24 7 Nordeste 18 Nordeste 0 -- -- 38
2019-08-08 22:00:00 24.8 5 Nordeste 14 Nordeste 0 -- -- 36
2019-08-08 21:00:00 27.8 0 Calma 13 Sudoeste 0 -- -- 32
2019-08-08 20:00:00 30.2 0 Calma 15 Oeste 0 -- -- 29
2019-08-08 19:00:00 30.9 5 Sudoeste 21 Oeste 0 -- -- 29
2019-08-08 18:00:00 32.6 6 Oeste 24 Noroeste 0 -- -- 28
2019-08-08 17:00:00 32.8 4 Oeste 23 Noroeste 0 -- -- 29
2019-08-08 16:00:00 30.4 6 Norte 21 Sudoeste 0 -- -- 31
2019-08-08 15:00:00 31.8 3 Oeste 15 Oeste 0 -- -- 31
2019-08-08 14:00:00 30 3 Norte 18 Sudoeste 0 -- -- 32
2019-08-08 13:00:00 30.3 3 Sudoeste 17 Sudeste 0 -- -- 34
2019-08-08 12:00:00 28 0 Calma 15 Sudeste 0 -- -- 38
2019-08-08 11:00:00 26 3 Norte 9 Sudoeste 0 -- -- 42
2019-08-08 10:00:00 24 0 Calma 9 Este 0 -- -- 49
2019-08-08 09:00:00 20.4 2 Este 15 Nordeste 0 -- -- 63
2019-08-08 08:00:00 17.7 4 Nordeste 15 Nordeste 0 -- -- 70
2019-08-08 07:00:00 18.7 0 Calma 8 Nordeste 0 -- -- 67
2019-08-08 06:00:00 18.9 0 Calma -- -- 0 -- -- 65
2019-08-08 05:00:00 18.9 0 Calma 10 Norte 0 -- -- 65
2019-08-08 04:00:00 19.4 6 Nordeste 12 Nordeste 0 -- -- 61
2019-08-08 03:00:00 20.2 0 Calma 6 Este 0 -- -- 55
2019-08-08 02:00:00 20.7 0 Calma 6 Sudeste 0 -- -- 51
2019-08-08 01:00:00 21.6 0 Calma 7 Norte 0 -- -- 48
2019-08-08 00:00:00 22.2 0 Calma 6 Sur 0 -- -- 46
2019-08-07 23:00:00 22.5 0 Calma 8 Noroeste 0 -- -- 43
2019-08-07 22:00:00 23.5 2 Noroeste 13 Noroeste 0 -- -- 40
2019-08-07 21:00:00 24.3 6 Noroeste 23 Noroeste 0 -- -- 38
2019-08-07 20:00:00 26.3 3 Sudoeste 12 Noroeste 0 -- -- 33
2019-08-07 19:00:00 26.6 3 Noroeste 16 Oeste 0 -- -- 32
2019-08-07 18:00:00 27.1 7 Noroeste 24 Noroeste 0 -- -- 31
2019-08-07 17:00:00 28.8 10 Noroeste 27 Oeste 0 -- -- 28
2019-08-07 16:00:00 30.4 13 Norte 36 Noroeste 0 -- -- 25
2019-08-07 15:00:00 30.7 13 Norte 32 Noroeste 0 -- -- 27
2019-08-07 14:00:00 29.7 10 Noroeste 26 Noroeste 0 -- -- 31
2019-08-07 13:00:00 28.8 5 Noroeste 21 Sudoeste 0 -- -- 34
2019-08-07 12:00:00 26.7 7 Noroeste 18 Noroeste 0 -- -- 46
2019-08-07 11:00:00 24.9 6 Noroeste 14 Norte 0 -- -- 51
2019-08-07 10:00:00 22 0 Calma 7 Sudeste 0 -- -- 61
2019-08-07 09:00:00 19.5 0 Calma 7 Nordeste 0 -- -- 70
2019-08-07 08:00:00 18 0 Calma 10 Noroeste 0 -- -- 76
2019-08-07 07:00:00 17.9 6 Oeste 13 Oeste 0 -- -- 76
2019-08-07 06:00:00 18 4 Noroeste 8 Noroeste 0 -- -- 73
2019-08-07 05:00:00 18.7 3 Sudoeste 14 Noroeste 0 -- -- 72
2019-08-07 04:00:00 18.9 4 Oeste 12 Noroeste 0 -- -- 65
2019-08-07 03:00:00 18.6 0 Calma 9 Nordeste 0 -- -- 59
2019-08-07 02:00:00 19.3 0 Calma 6 Nordeste 0 -- -- 57
2019-08-07 01:00:00 20.2 4 Nordeste 12 Nordeste 0 -- -- 53
2019-08-07 00:00:00 21.6 4 Norte 20 Nordeste 0 -- -- 49
2019-08-06 23:00:00 22.8 11 Nordeste 22 Norte 0 -- -- 44
2019-08-06 22:00:00 24.4 12 Nordeste 19 Nordeste 0 -- -- 37
2019-08-06 21:00:00 27.2 6 Nordeste 11 Nordeste 0 -- -- 31
2019-08-06 20:00:00 29.3 3 Norte 13 Noroeste 0 -- -- 28
2019-08-06 19:00:00 30.6 6 Noroeste 18 Noroeste 0 -- -- 28
2019-08-06 18:00:00 32.4 9 Norte 21 Noroeste 0 -- -- 27
2019-08-06 17:00:00 33.8 2 Noroeste 19 Norte 0 -- -- 26
2019-08-06 16:00:00 32.1 8 Noroeste 26 Noroeste 0 -- -- 27
2019-08-06 15:00:00 31.8 8 Noroeste 26 Noroeste 0 -- -- 28
2019-08-06 14:00:00 31.2 9 Noroeste 25 Noroeste 0 -- -- 29
2019-08-06 13:00:00 32.6 4 Oeste 13 Norte 0 -- -- 31
2019-08-06 12:00:00 29.1 2 Norte 10 Oeste 0 -- -- 37
2019-08-06 11:00:00 25.1 3 Noroeste 10 Sudoeste 0 -- -- 46
2019-08-06 10:00:00 22.4 3 Sudoeste 12 Oeste 0 -- -- 57
2019-08-06 09:00:00 18.3 2 Noroeste 8 Noroeste 0 -- -- 67
2019-08-06 08:00:00 16 3 Nordeste 9 Norte 0 -- -- 70
2019-08-06 07:00:00 16.8 3 Norte 12 Norte 0 -- -- 62
2019-08-06 06:00:00 18.3 7 Nordeste 17 Nordeste 0 -- -- 57
2019-08-06 05:00:00 17.7 2 Nordeste 15 Nordeste 0 -- -- 56
2019-08-06 04:00:00 17.8 7 Nordeste 19 Nordeste 0 -- -- 53
2019-08-06 03:00:00 18.4 9 Nordeste 18 Nordeste 0 -- -- 49
2019-08-06 02:00:00 19 5 Nordeste 14 Nordeste 0 -- -- 47
2019-08-06 01:00:00 19.9 4 Nordeste 16 Nordeste 0 -- -- 43
2019-08-06 00:00:00 20.6 5 Norte 14 Nordeste 0 -- -- 40
2019-08-05 23:00:00 22.3 12 Nordeste 28 Nordeste 0 -- -- 37
2019-08-05 22:00:00 24.4 11 Nordeste 22 Nordeste 0 -- -- 29
2019-08-05 21:00:00 28.7 0 Calma 11 Sudoeste 0 -- -- 25
2019-08-05 20:00:00 31.2 6 Sudoeste 16 Noroeste 0 -- -- 22
2019-08-05 19:00:00 32.6 4 Oeste 18 Oeste 0 -- -- 21
2019-08-05 18:00:00 34.2 5 Oeste 21 Sudoeste 0 -- -- 19
2019-08-05 17:00:00 34.9 5 Oeste 27 Sudoeste 0 -- -- 21
2019-08-05 16:00:00 34.8 8 Noroeste 26 Noroeste 0 -- -- 22
2019-08-05 15:00:00 34.2 8 Oeste 25 Sur 0 -- -- 23
2019-08-05 14:00:00 33.4 5 Noroeste 17 Noroeste 0 -- -- 25
2019-08-05 13:00:00 31.4 4 Sur 17 Sudeste 0 -- -- 29
2019-08-05 12:00:00 29.4 5 Sudeste 13 Sur 0 -- -- 34
2019-08-05 11:00:00 25.4 2 Noroeste 8 Noroeste 0 -- -- 47
2019-08-05 10:00:00 21.1 0 Calma 4 Nordeste 0 -- -- 59
2019-08-05 09:00:00 18 0 Calma 9 Nordeste 0 -- -- 68
2019-08-05 08:00:00 15.2 3 Nordeste 17 Nordeste 0 -- -- 75
2019-08-05 07:00:00 14.8 2 Nordeste 8 Este 0 -- -- 72
2019-08-05 06:00:00 15.7 0 Calma 10 Nordeste 0 -- -- 68
2019-08-05 05:00:00 16.2 4 Norte 13 Norte 0 -- -- 64
2019-08-05 04:00:00 17.7 13 Nordeste 23 Nordeste 0 -- -- 55
2019-08-05 03:00:00 18.5 5 Nordeste 16 Nordeste 0 -- -- 52
2019-08-05 02:00:00 19.5 2 Este 18 Nordeste 0 -- -- 51
2019-08-05 01:00:00 19.8 6 Nordeste 17 Nordeste 0 -- -- 47
2019-08-05 00:00:00 21 8 Nordeste 18 Norte 0 -- -- 43
2019-08-04 23:00:00 22.4 8 Nordeste 18 Norte 0 -- -- 40
2019-08-04 22:00:00 24.2 3 Norte 23 Nordeste 0 -- -- 33
2019-08-04 21:00:00 27.4 8 Nordeste 17 Nordeste 0 -- -- 25
2019-08-04 20:00:00 31.3 6 Norte 16 Norte 0 -- -- 22
2019-08-04 19:00:00 32.6 11 Norte 22 Norte 0 -- -- 22
2019-08-04 18:00:00 33.4 3 Norte 19 Noroeste 0 -- -- 22
2019-08-04 17:00:00 34.4 4 Noroeste 23 Norte 0 -- -- 21
2019-08-04 16:00:00 34.4 3 Oeste 21 Oeste 0 -- -- 22
2019-08-04 15:00:00 35.1 5 Oeste 23 Nordeste 0 -- -- 24
2019-08-04 14:00:00 34 5 Oeste 23 Noroeste 0 -- -- 25
2019-08-04 13:00:00 32.9 4 Sur 12 Oeste 0 -- -- 29
2019-08-04 12:00:00 29.3 4 Noroeste 11 Noroeste 0 -- -- 35
2019-08-04 11:00:00 26.2 0 Calma 6 Oeste 0 -- -- 40
2019-08-04 10:00:00 22.6 0 Calma 13 Nordeste 0 -- -- 46
2019-08-04 09:00:00 18.4 2 Nordeste 6 Nordeste 0 -- -- 57
2019-08-04 08:00:00 16 2 Nordeste 16 Nordeste 0 -- -- 59
2019-08-04 07:00:00 16.2 7 Nordeste 22 Nordeste 0 -- -- 58
2019-08-04 06:00:00 16.7 12 Nordeste 23 Norte 0 -- -- 54
2019-08-04 05:00:00 18.2 8 Nordeste 20 Nordeste 0 -- -- 49
2019-08-04 04:00:00 18.3 8 Nordeste 21 Nordeste 0 -- -- 49
2019-08-04 03:00:00 19.2 10 Nordeste 22 Nordeste 0 -- -- 47
2019-08-04 02:00:00 19.1 7 Nordeste 22 Nordeste 0 -- -- 47
2019-08-04 01:00:00 19.8 8 Nordeste 25 Nordeste 0 -- -- 44
2019-08-04 00:00:00 20.8 13 Nordeste 26 Nordeste 0 -- -- 42
2019-08-03 23:00:00 22.7 9 Nordeste 26 Nordeste 0 -- -- 38
2019-08-03 22:00:00 24.8 18 Nordeste 29 Nordeste 0 -- -- 33
2019-08-03 21:00:00 26.8 10 Nordeste 21 Nordeste 0 -- -- 27
2019-08-03 20:00:00 30.8 0 Calma 21 Norte 0 -- -- 22
2019-08-03 19:00:00 31.9 10 Norte 24 Noroeste 0 -- -- 22
2019-08-03 18:00:00 33.6 6 Noroeste 20 Noroeste 0 -- -- 21
2019-08-03 17:00:00 33.9 8 Sudoeste 19 Oeste 0 -- -- 20
2019-08-03 16:00:00 34.2 5 Oeste 21 Noroeste 0 -- -- 22
2019-08-03 15:00:00 33.5 7 Norte 18 Norte 0 -- -- 23
2019-08-03 14:00:00 32.4 6 Oeste 16 Sudoeste 0 -- -- 22
2019-08-03 13:00:00 30.9 6 Norte 14 Norte 0 -- -- 25
2019-08-03 12:00:00 29.4 0 Calma 9 Sur 0 -- -- 23
2019-08-03 11:00:00 25 0 Calma 6 Norte 0 -- -- 34
2019-08-03 10:00:00 20.7 2 Nordeste 7 Sudeste 0 -- -- 42
2019-08-03 09:00:00 17.5 0 Calma 16 Nordeste 0 -- -- 47
2019-08-03 08:00:00 14.7 7 Nordeste 17 Nordeste 0 -- -- 47
2019-08-03 07:00:00 13.3 6 Nordeste 22 Nordeste 0 -- -- 49
2019-08-03 06:00:00 13.8 11 Nordeste 22 Este 0 -- -- 49
2019-08-03 05:00:00 14.1 8 Nordeste 17 Nordeste 0 -- -- 49
2019-08-03 04:00:00 14.2 6 Nordeste 23 Nordeste 0 -- -- 51
2019-08-03 03:00:00 15.1 9 Nordeste 21 Nordeste 0 -- -- 48
2019-08-03 02:00:00 15.5 8 Nordeste 21 Nordeste 0 -- -- 47
2019-08-03 01:00:00 16.8 7 Nordeste 16 Nordeste 0 -- -- 44
2019-08-03 00:00:00 17.9 6 Nordeste 17 Nordeste 0 -- -- 42
2019-08-02 23:00:00 19.6 8 Nordeste 16 Nordeste 0 -- -- 37
2019-08-02 22:00:00 21.8 10 Nordeste 27 Norte 0 -- -- 31
2019-08-02 21:00:00 24.1 17 Nordeste 28 Norte 0 -- -- 26
2019-08-02 20:00:00 27.7 10 Norte 24 Noroeste 0 -- -- 22
2019-08-02 19:00:00 29.7 9 Noroeste 31 Noroeste 0 -- -- 22
2019-08-02 18:00:00 30.9 9 Noroeste 33 Noroeste 0 -- -- 20
2019-08-02 17:00:00 30.9 9 Noroeste 30 Noroeste 0 -- -- 20
2019-08-02 16:00:00 30.9 12 Noroeste 31 Noroeste 0 -- -- 21
2019-08-02 15:00:00 30.9 6 Oeste 29 Noroeste 0 -- -- 22
2019-08-02 14:00:00 29.2 8 Noroeste 22 Noroeste 0 -- -- 26
2019-08-02 13:00:00 27.1 8 Noroeste 21 Noroeste 0 -- -- 31
2019-08-02 12:00:00 24.9 4 Noroeste 16 Noroeste 0 -- -- 43
2019-08-02 11:00:00 22.5 3 Oeste 11 Sudoeste 0 -- -- 54
2019-08-02 10:00:00 18.9 0 Calma 9 Noroeste 0 -- -- 68
2019-08-02 09:00:00 15.2 3 Nordeste 6 Nordeste 0 -- -- 81
2019-08-02 08:00:00 13 0 Calma 8 Norte 0 -- -- 86
2019-08-02 07:00:00 13.2 5 Nordeste 18 Nordeste 0 -- -- 86
2019-08-02 06:00:00 13.5 5 Nordeste 10 Nordeste 0 -- -- 85
2019-08-02 05:00:00 14.5 0 Calma 12 Nordeste 0 -- -- 79
2019-08-02 04:00:00 14.9 0 Calma 11 Nordeste 0 -- -- 78
2019-08-02 03:00:00 15.3 3 Nordeste 9 Nordeste 0 -- -- 76
2019-08-02 02:00:00 16.5 0 Calma 9 Noroeste 0 -- -- 73
2019-08-02 01:00:00 17.7 4 Oeste 11 Noroeste 0 -- -- 74
2019-08-02 00:00:00 18.3 6 Oeste 13 Sudoeste 0 -- -- 70
2019-08-01 23:00:00 19.4 2 Oeste 12 Nordeste 0 -- -- 61
2019-08-01 22:00:00 19.6 7 Nordeste 31 Nordeste 0 -- -- 59
2019-08-01 21:00:00 20.7 22 Nordeste 42 Nordeste 0 -- -- 44
2019-08-01 20:00:00 25.9 5 Noroeste 13 Noroeste 0 -- -- 32
2019-08-01 19:00:00 28.3 5 Oeste 20 Noroeste 0 -- -- 28
2019-08-01 18:00:00 28.6 9 Sudoeste 20 Sudoeste 0 -- -- 28
2019-08-01 17:00:00 30.9 4 Noroeste 20 Noroeste 0 -- -- 27
2019-08-01 16:00:00 28 3 Sur 20 Sudoeste 0 -- -- 29
2019-08-01 15:00:00 28.1 9 Sur 24 Sur 0 -- -- 30
2019-08-01 14:00:00 26.2 6 Sudeste 18 Sudeste 0 -- -- 36
2019-08-01 13:00:00 24.3 0 Calma 10 Sudoeste 0 -- -- 48
2019-08-01 12:00:00 20.4 6 Sudoeste 23 Noroeste 0 -- -- 59
2019-08-01 11:00:00 19 11 Noroeste 28 Noroeste 0 -- -- 63
2019-08-01 10:00:00 18.2 7 Noroeste 21 Noroeste 0 -- -- 68
2019-08-01 09:00:00 16.3 3 Oeste 13 Noroeste 0 -- -- 74
2019-08-01 08:00:00 16.7 3 Noroeste 12 Este 0 -- -- 75
2019-08-01 07:00:00 16.6 3 Nordeste 17 Sudeste 0 -- -- 72
2019-08-01 06:00:00 15.7 5 Nordeste 13 Nordeste 0 -- -- 78
2019-08-01 05:00:00 16.3 4 Este 18 Nordeste 0 -- -- 74
2019-08-01 04:00:00 17.4 4 Este 18 Nordeste 0 -- -- 59
2019-08-01 03:00:00 16.9 5 Nordeste 26 Nordeste 0 -- -- 55
2019-08-01 02:00:00 16.8 2 Este 22 Nordeste 0 -- -- 55
2019-08-01 01:00:00 16.2 8 Nordeste 33 Nordeste 0 -- -- 55
2019-08-01 00:00:00 17.5 14 Nordeste 29 Nordeste 0 -- -- 49
2019-07-31 23:00:00 19.2 4 Este 19 Nordeste 0 -- -- 43
2019-07-31 22:00:00 20.6 9 Nordeste 17 Nordeste 0 -- -- 38
2019-07-31 21:00:00 23.2 0 Calma 9 Noroeste 0 -- -- 32
2019-07-31 20:00:00 25.7 5 Noroeste 15 Oeste 0 -- -- 28
2019-07-31 19:00:00 26.5 9 Norte 22 Noroeste 0 -- -- 28
2019-07-31 18:00:00 27.8 9 Noroeste 26 Noroeste 0 -- -- 27
2019-07-31 17:00:00 29 9 Noroeste 24 Noroeste 0 -- -- 25
2019-07-31 16:00:00 29.4 6 Noroeste 22 Noroeste 0 -- -- 26
2019-07-31 15:00:00 28.6 4 Noroeste 16 Oeste 0 -- -- 28
2019-07-31 14:00:00 27.8 3 Nordeste 13 Sudoeste 0 -- -- 28
2019-07-31 13:00:00 25.6 9 Sudoeste 15 Oeste 0 -- -- 30
2019-07-31 12:00:00 22.5 2 Norte 9 Nordeste 0 -- -- 37
2019-07-31 11:00:00 17.9 2 Norte 7 Noroeste 0 -- -- 46
2019-07-31 10:00:00 14.3 2 Noroeste 4 Noroeste 0 -- -- 57
2019-07-31 09:00:00 11.5 0 Calma 12 Nordeste 0 -- -- 70
2019-07-31 08:00:00 8 6 Nordeste 12 Nordeste 0 -- -- 83
2019-07-31 07:00:00 7.7 5 Nordeste 15 Nordeste 0 -- -- 83
2019-07-31 06:00:00 8 5 Nordeste 23 Nordeste 0 -- -- 82
2019-07-31 05:00:00 8.4 7 Nordeste 18 Nordeste 0 -- -- 82
2019-07-31 04:00:00 8.5 4 Nordeste 9 Nordeste 0 -- -- 81
2019-07-31 03:00:00 9.4 3 Nordeste 8 Norte 0 -- -- 77
2019-07-31 02:00:00 10.2 0 Calma 5 Norte 0 -- -- 73
2019-07-31 01:00:00 11.1 3 Noroeste 13 Oeste 0 -- -- 67
2019-07-31 00:00:00 12.2 5 Oeste 15 Oeste 0 -- -- 62
2019-07-30 23:00:00 13 8 Noroeste 23 Noroeste 0 -- -- 59
2019-07-30 22:00:00 14.8 8 Oeste 20 Norte 0 -- -- 52
2019-07-30 21:00:00 16.9 9 Norte 35 Nordeste 0 -- -- 42
2019-07-30 20:00:00 20.2 10 Noroeste 29 Noroeste 0 -- -- 37
2019-07-30 19:00:00 21.9 8 Noroeste 34 Noroeste 0 -- -- 35
2019-07-30 18:00:00 23.4 10 Noroeste 31 Noroeste 0 -- -- 33
2019-07-30 17:00:00 24.5 9 Noroeste 35 Noroeste 0 -- -- 31
2019-07-30 16:00:00 24.8 10 Noroeste 28 Noroeste 0 -- -- 31
2019-07-30 15:00:00 25.6 6 Noroeste 22 Noroeste 0 -- -- 32
2019-07-30 14:00:00 24.6 5 Noroeste 24 Noroeste 0 -- -- 36
2019-07-30 13:00:00 22.7 8 Noroeste 23 Noroeste 0 -- -- 38
2019-07-30 12:00:00 21.4 5 Oeste 19 Oeste 0 -- -- 42
2019-07-30 11:00:00 18.7 8 Noroeste 22 Noroeste 0 -- -- 49
2019-07-30 10:00:00 16.6 6 Noroeste 19 Noroeste 0 -- -- 57
2019-07-30 09:00:00 14.5 4 Noroeste 16 Noroeste 0 -- -- 67
2019-07-30 08:00:00 12.7 7 Oeste 14 Noroeste 0 -- -- 70
2019-07-30 07:00:00 13 5 Noroeste 15 Oeste 0 -- -- 72
2019-07-30 06:00:00 13.3 5 Noroeste 12 Noroeste 0 -- -- 72
2019-07-30 05:00:00 13.7 3 Oeste 12 Oeste 0 -- -- 72
2019-07-30 04:00:00 13.3 5 Noroeste 13 Oeste 0 -- -- 72
2019-07-30 03:00:00 14.1 6 Noroeste 14 Noroeste 0 -- -- 68
2019-07-30 02:00:00 15.1 5 Noroeste 16 Noroeste 0 -- -- 66
2019-07-30 01:00:00 16.1 6 Oeste 17 Oeste 0 -- -- 63
2019-07-30 00:00:00 17.5 6 Noroeste 18 Oeste 0 -- -- 59
2019-07-29 23:00:00 19.1 6 Noroeste 17 Noroeste 0 -- -- 53
2019-07-29 22:00:00 21.5 5 Oeste 24 Nordeste 0 -- -- 46
2019-07-29 21:00:00 23.6 14 Nordeste 25 Nordeste 0 -- -- 31
2019-07-29 20:00:00 27.9 3 Norte 15 Noroeste 0 -- -- 24
2019-07-29 19:00:00 29.3 5 Norte 22 Norte 0 -- -- 22
2019-07-29 18:00:00 30.2 3 Norte 19 Noroeste 0 -- -- 22
2019-07-29 17:00:00 29.3 2 Noroeste 26 Noroeste 0 -- -- 22
2019-07-29 16:00:00 29.4 9 Norte 27 Noroeste 0 -- -- 23
2019-07-29 15:00:00 28.3 10 Norte 22 Noroeste 0 -- -- 22
2019-07-29 14:00:00 28.2 4 Oeste 22 Oeste 0 -- -- 22
2019-07-29 13:00:00 26.7 4 Norte 20 Noroeste 0 -- -- 25
2019-07-29 12:00:00 25.5 4 Sudoeste 13 Sudoeste 0 -- -- 27
2019-07-29 11:00:00 22.3 0 Calma 9 Sur 0 -- -- 38
2019-07-29 10:00:00 18.7 3 Sudeste 10 Este 0 -- -- 49
2019-07-29 09:00:00 14.8 3 Sudeste 17 Nordeste 0 -- -- 63
2019-07-29 08:00:00 10.3 5 Nordeste 15 Nordeste 0 -- -- 76
2019-07-29 07:00:00 10.2 9 Nordeste 21 Nordeste 0 -- -- 74
2019-07-29 06:00:00 10.5 5 Nordeste 21 Nordeste 0 -- -- 76
2019-07-29 05:00:00 10.9 7 Nordeste 22 Nordeste 0 -- -- 76
2019-07-29 04:00:00 11.4 9 Nordeste 22 Nordeste 0 -- -- 76
2019-07-29 03:00:00 11.9 6 Nordeste 18 Nordeste 0 -- -- 78
2019-07-29 02:00:00 11.7 13 Nordeste 23 Nordeste 0 -- -- 79
2019-07-29 01:00:00 12.3 5 Nordeste 17 Nordeste 0 -- -- 76
2019-07-29 00:00:00 13.9 12 Nordeste 18 Nordeste 0 -- -- 67
2019-07-28 23:00:00 15.3 3 Nordeste 14 Nordeste 0 -- -- 57
2019-07-28 22:00:00 16.8 6 Nordeste 11 Noroeste 0 -- -- 49
2019-07-28 21:00:00 19.4 6 Noroeste 22 Noroeste 0 -- -- 38
2019-07-28 20:00:00 21.6 11 Noroeste 26 Noroeste 0 -- -- 33
2019-07-28 19:00:00 23.4 8 Noroeste 28 Noroeste 0 -- -- 31
2019-07-28 18:00:00 24.1 8 Noroeste 35 Noroeste 0 -- -- 30
2019-07-28 17:00:00 24.7 10 Noroeste 30 Noroeste 0 -- -- 30
2019-07-28 16:00:00 24.2 13 Noroeste 31 Oeste 0 -- -- 31
2019-07-28 15:00:00 23.6 8 Oeste 26 Oeste 0 -- -- 32
2019-07-28 14:00:00 22.9 8 Noroeste 27 Norte 0 -- -- 33
2019-07-28 13:00:00 22.8 5 Oeste 22 Oeste 0 -- -- 34
2019-07-28 12:00:00 19.6 6 Noroeste 27 Noroeste 0 -- -- 37
2019-07-28 11:00:00 18.1 9 Noroeste 25 Noroeste 0 -- -- 44
2019-07-28 10:00:00 16.1 6 Oeste 23 Noroeste 0 -- -- 52
2019-07-28 09:00:00 13.3 7 Noroeste 24 Sudeste 0 -- -- 66
2019-07-28 08:00:00 10.9 5 Sur 20 Sudeste 0 -- -- 75
2019-07-28 07:00:00 9.9 2 Sudoeste 14 Noroeste 0 -- -- 76
2019-07-28 06:00:00 10.1 6 Oeste 16 Oeste 0 -- -- 75
2019-07-28 05:00:00 10.2 0 Calma 18 Sudoeste 0 -- -- 72
2019-07-28 04:00:00 10.6 5 Sur 29 Noroeste 0 -- -- 72
2019-07-28 03:00:00 10.8 15 Noroeste 37 Noroeste 0 -- -- 76
2019-07-28 02:00:00 11 5 Noroeste 39 Oeste 0 -- -- 74
2019-07-28 01:00:00 11 14 Noroeste 30 Noroeste 0 -- -- 72
2019-07-28 00:00:00 11.8 15 Noroeste 36 Noroeste 0 -- -- 68
2019-07-27 23:00:00 11.8 10 Noroeste 22 Noroeste 0 -- -- 72
2019-07-26 12:00:00 20.5 8 Sudoeste 18 Sudoeste 0 -- -- 79
2019-07-26 11:00:00 19.7 2 Oeste 10 Noroeste 0 -- -- 83
2019-07-26 10:00:00 19.1 3 Noroeste 21 Noroeste 0 -- -- 85
2019-07-26 09:00:00 19.4 0 Calma 10 Nordeste 0 -- -- 83
2019-07-26 08:00:00 19 3 Este 19 Noroeste 0 -- -- 79
2019-07-26 07:00:00 19.6 5 Oeste 24 Noroeste 0 -- -- 71
2019-07-26 06:00:00 21.5 8 Noroeste 20 Oeste 0 -- -- 51
2019-07-26 05:00:00 23.4 6 Este 17 Este 0 -- -- 42
2019-07-26 04:00:00 23.5 8 Este 20 Este 0 -- -- 42
2019-07-26 03:00:00 23.1 3 Este 10 Sudeste 0 -- -- 42
2019-07-26 02:00:00 22.9 4 Este 15 Sudeste 0 -- -- 38
2019-07-26 01:00:00 25.1 6 Este 15 Sudeste 0 -- -- 34
2019-07-26 00:00:00 25.6 2 Sudeste 13 Sudeste 0 -- -- 34
2019-07-25 23:00:00 26.8 5 Sudeste 20 Sudeste 0 -- -- 32
2019-07-25 22:00:00 28 7 Este 21 Sudeste 0 -- -- 31
2019-07-25 21:00:00 29.4 9 Sudeste 25 Sur 0 -- -- 28
2019-07-25 20:00:00 31.7 3 Sudoeste 26 Sur 0 -- -- 25
2019-07-25 19:00:00 32.8 10 Sur 24 Sur 0 -- -- 22
2019-07-25 18:00:00 34.9 10 Sudoeste 28 Sudoeste 0 -- -- 21
2019-07-25 17:00:00 35.6 12 Sudoeste 28 Sudoeste 0 -- -- 22
2019-07-25 16:00:00 35.9 12 Sudoeste 31 Sudeste 0 -- -- 22
2019-07-25 15:00:00 35 7 Sudeste 26 Sudeste 0 -- -- 22
2019-07-25 14:00:00 34.1 12 Sur 25 Sur 0 -- -- 23
2019-07-25 13:00:00 34.1 6 Sudeste 22 Sudeste 0 -- -- 25
2019-07-25 12:00:00 32.4 7 Sudeste 24 Sudeste 0 -- -- 26
2019-07-25 11:00:00 30.8 10 Sudeste 20 Sudeste 0 -- -- 28
2019-07-25 10:00:00 27.7 6 Sudeste 19 Sudeste 0 -- -- 31
2019-07-25 09:00:00 22.3 3 Nordeste 17 Nordeste 0 -- -- 34
2019-07-25 08:00:00 21.3 10 Nordeste 21 Nordeste 0 -- -- 34
2019-07-25 07:00:00 21.4 10 Nordeste 21 Nordeste 0 -- -- 34
2019-07-25 06:00:00 21.6 7 Nordeste 15 Nordeste 0 -- -- 34
2019-07-25 05:00:00 21.8 3 Este 15 Este 0 -- -- 34
2019-07-25 04:00:00 23.9 5 Este 20 Sudeste 0 -- -- 31
2019-07-25 03:00:00 24.3 5 Este 15 Este 0 -- -- 31
2019-07-25 02:00:00 24.1 5 Este 14 Sudeste 0 -- -- 31
2019-07-25 01:00:00 24.4 6 Sudeste 20 Sur 0 -- -- 30
2019-07-25 00:00:00 25.3 4 Sudeste 17 Sudeste 0 -- -- 28
2019-07-24 23:00:00 25.5 5 Nordeste 13 Nordeste 0 -- -- 28
2019-07-24 22:00:00 28.8 2 Sur 11 Este 0 -- -- 24
2019-07-24 21:00:00 30.8 5 Sudeste 16 Sur 0 -- -- 23
2019-07-24 20:00:00 32.5 4 Sur 14 Sur 0 -- -- 21
2019-07-24 19:00:00 33 7 Sur 15 Sur 0 -- -- 21
2019-07-24 18:00:00 33.8 8 Sudoeste 25 Sudoeste 0 -- -- 21
2019-07-24 17:00:00 34.5 12 Sudoeste 26 Oeste 0 -- -- 20
2019-07-24 16:00:00 37 5 Sudoeste 23 Sur 0 -- -- 19
2019-07-24 15:00:00 35 8 Sur 20 Sur 0 -- -- 20
2019-07-24 14:00:00 35.2 7 Sudoeste 23 Sudoeste 0 -- -- 22
2019-07-24 13:00:00 34.8 5 Oeste 18 Noroeste 0 -- -- 24
2019-07-24 12:00:00 33.4 4 Noroeste 14 Sudeste 0 -- -- 26
2019-07-24 11:00:00 29.6 5 Este 15 Sudeste 0 -- -- 29
2019-07-24 10:00:00 26.8 3 Nordeste 15 Nordeste 0 -- -- 34
2019-07-24 09:00:00 22 6 Nordeste 19 Norte 0 -- -- 37
2019-07-24 08:00:00 19.7 6 Nordeste 25 Nordeste 0 -- -- 38
2019-07-24 07:00:00 19.1 6 Nordeste 26 Nordeste 0 -- -- 38
2019-07-24 06:00:00 19.6 8 Nordeste 19 Nordeste 0 -- -- 38
2019-07-24 05:00:00 21.1 12 Nordeste 20 Nordeste 0 -- -- 36
2019-07-24 04:00:00 22.2 3 Sudeste 21 Nordeste 0 -- -- 34
2019-07-24 03:00:00 21.8 4 Nordeste 12 Nordeste 0 -- -- 34
2019-07-24 02:00:00 22.3 5 Nordeste 13 Nordeste 0 -- -- 33
2019-07-24 01:00:00 23.5 3 Nordeste 16 Nordeste 0 -- -- 31
2019-07-24 00:00:00 24.5 3 Norte 17 Nordeste 0 -- -- 29
2019-07-23 23:00:00 27.1 3 Este 15 Este 0 -- -- 25
2019-07-23 22:00:00 29.5 4 Este 13 Sudeste 0 -- -- 23
2019-07-23 21:00:00 31.4 6 Sur 21 Sur 0 -- -- 21
2019-07-23 20:00:00 33.1 6 Sur 18 Sur 0 -- -- 19
2019-07-23 19:00:00 34.6 5 Sur 23 Sur 0 -- -- 19
2019-07-23 18:00:00 35.6 10 Sudoeste 26 Sudoeste 0 -- -- 19
2019-07-23 17:00:00 36.4 10 Oeste 24 Oeste 0 -- -- 19
2019-07-23 16:00:00 36.1 5 Sur 32 Sur 0 -- -- 19
2019-07-23 15:00:00 36.3 5 Sudeste 24 Sudoeste 0 -- -- 19
2019-07-23 14:00:00 35.2 7 Sur 24 Sudoeste 0 -- -- 21
2019-07-23 13:00:00 35 5 Sudoeste 19 Sudoeste 0 -- -- 22
2019-07-23 12:00:00 32.9 6 Sudeste 24 Este 0 -- -- 23
2019-07-23 11:00:00 30.9 10 Sudeste 21 Sudeste 0 -- -- 25
2019-07-23 10:00:00 25.6 3 Este 13 Nordeste 0 -- -- 33
2019-07-23 09:00:00 22.5 7 Nordeste 26 Nordeste 0 -- -- 34
2019-07-23 08:00:00 19.3 8 Nordeste 21 Nordeste 0 -- -- 38
2019-07-23 07:00:00 19 6 Nordeste 17 Nordeste 0 -- -- 37
2019-07-23 06:00:00 19.3 7 Nordeste 19 Nordeste 0 -- -- 37
2019-07-23 05:00:00 20 8 Nordeste 17 Nordeste 0 -- -- 35
2019-07-23 04:00:00 22 3 Este 16 Sudeste 0 -- -- 31
2019-07-23 03:00:00 23.4 6 Este 17 Sudeste 0 -- -- 29
2019-07-23 02:00:00 23 4 Este 16 Sudeste 0 -- -- 30
2019-07-23 01:00:00 22.5 4 Este 18 Sudeste 0 -- -- 31
2019-07-23 00:00:00 26.3 7 Sudeste 23 Sudeste 0 -- -- 25
2019-07-22 23:00:00 26.7 4 Este 14 Sudeste 0 -- -- 25
2019-07-22 22:00:00 28.1 3 Este 12 Sudeste 0 -- -- 23
2019-07-22 21:00:00 30.8 3 Sudeste 18 Sur 0 -- -- 22
2019-07-22 20:00:00 32.5 7 Sur 22 Sur 0 -- -- 19
2019-07-22 19:00:00 33.6 8 Sudeste 29 Sur 0 -- -- 19
2019-07-22 18:00:00 34 11 Sur 24 Sur 0 -- -- 21
2019-07-22 17:00:00 35 8 Sur 22 Sur 0 -- -- 22
2019-07-22 16:00:00 34.9 9 Sur 27 Sudoeste 0 -- -- 22
2019-07-22 15:00:00 35.8 8 Sudeste 22 Este 0 -- -- 22
2019-07-22 14:00:00 34.6 5 Sur 21 Sur 0 -- -- 23
2019-07-22 13:00:00 33.7 3 Sur 19 Sur 0 -- -- 24
2019-07-22 12:00:00 32 5 Sudeste 24 Sur 0 -- -- 25
2019-07-22 11:00:00 29.8 7 Sudeste 20 Sudeste 0 -- -- 28
2019-07-22 10:00:00 23.7 0 Calma 13 Nordeste 0 -- -- 48
2019-07-22 09:00:00 19.5 7 Norte 16 Nordeste 0 -- -- 52
2019-07-22 08:00:00 18.8 4 Nordeste 13 Nordeste 0 -- -- 51
2019-07-22 07:00:00 19.4 3 Nordeste 14 Sudeste 0 -- -- 49
2019-07-22 06:00:00 18.8 5 Nordeste 18 Nordeste 0 -- -- 53
2019-07-22 05:00:00 19.4 4 Nordeste 18 Nordeste 0 -- -- 52
2019-07-22 04:00:00 19.8 6 Nordeste 24 Nordeste 0 -- -- 52
2019-07-22 03:00:00 19.6 6 Nordeste 16 Nordeste 0 -- -- 52
2019-07-22 02:00:00 20.3 9 Nordeste 17 Norte 0 -- -- 51
2019-07-22 01:00:00 20.3 7 Nordeste 15 Nordeste 0 -- -- 51
2019-07-22 00:00:00 22.5 6 Nordeste 18 Nordeste 0 -- -- 42
2019-07-21 23:00:00 24.2 7 Nordeste 16 Norte 0 -- -- 38
2019-07-21 22:00:00 26.5 3 Nordeste 14 Sudeste 0 -- -- 33
2019-07-21 21:00:00 29.4 4 Sudeste 10 Sur 0 -- -- 28
2019-07-21 20:00:00 31.1 4 Oeste 15 Norte 0 -- -- 27
2019-07-21 19:00:00 33.1 2 Oeste 16 Noroeste 0 -- -- 26
2019-07-21 18:00:00 33.6 3 Norte 17 Noroeste 0 -- -- 27
2019-07-21 17:00:00 34 4 Noroeste 16 Noroeste 0 -- -- 27
2019-07-21 16:00:00 33.4 3 Noroeste 15 Nordeste 0 -- -- 27
2019-07-21 15:00:00 30.9 6 Noroeste 20 Noroeste 0 -- -- 31
2019-07-21 14:00:00 28.8 5 Noroeste 15 Noroeste 0 -- -- 31
2019-07-21 13:00:00 29.2 7 Sur 17 Sur 0 -- -- 27
2019-07-21 12:00:00 28.9 6 Sudeste 22 Sudeste 0 -- -- 29
2019-07-21 11:00:00 26.8 7 Sudeste 21 Sur 0 -- -- 32
2019-07-21 10:00:00 24.4 6 Sudeste 14 Sudeste 0 -- -- 42
2019-07-21 09:00:00 19.9 5 Nordeste 10 Nordeste 0 -- -- 65
2019-07-21 08:00:00 17.5 0 Calma 6 Nordeste 0 -- -- 81
2019-07-21 07:00:00 16.8 0 Calma 6 Oeste 0 -- -- 81
2019-07-21 06:00:00 17.2 0 Calma 8 Noroeste 0 -- -- 79
2019-07-21 05:00:00 18.2 0 Calma 10 Oeste 0 -- -- 76
2019-07-21 04:00:00 18.5 4 Oeste 12 Noroeste 0 -- -- 73
2019-07-21 03:00:00 19.5 0 Calma 10 Oeste 0 -- -- 70
2019-07-21 02:00:00 20.6 4 Oeste 8 Oeste 0 -- -- 63
2019-07-21 01:00:00 21.4 2 Norte 10 Norte 0 -- -- 55
2019-07-21 00:00:00 22.2 5 Nordeste 15 Nordeste 0 -- -- 53